Aviation Digital Data Service (ADDS)

Output produced by METARs form (0833 UTC 31 March 2015)
found at http://www.aviationweather.gov/adds/metars/
 
KSEG 310753Z AUTO 31003KT 10SM CLR 01/M03 A2989 RMK AO2 SLP125 T00061028
KSEG 310653Z AUTO 35004KT 10SM BKN080 04/M03 A2991 RMK AO2 SLP130 T00441028
KSEG 310553Z AUTO 35003KT 10SM BKN075 BKN090 03/M02 A2991 RMK AO2 SLP132 T00281017 10100 20028 53008
KSEG 310453Z AUTO 33007KT 10SM FEW050 BKN090 04/M02 A2990 RMK AO2 SLP128 T00441017 401170028
KSEG 310353Z AUTO 35005KT 10SM SCT100 05/M02 A2989 RMK AO2 SLP124 T00501022
KSEG 310253Z AUTO 29006G15KT 10SM SCT070 OVC095 09/M02 A2989 RMK AO2 SLP123 T00891022 51013
KSEG 310153Z AUTO 21004KT 10SM SCT070 OVC090 07/M04 A2989 RMK AO2 SLP123 T00721044
KSEG 310053Z AUTO VRB03KT 10SM BKN100 08/M06 A2988 RMK AO2 SLP119 T00781056
KSEG 302353Z AUTO 27005G16KT 10SM OVC090 10/M06 A2985 RMK AO2 SLP112 60000 T01001061 10117 20094 53010
KSEG 302253Z AUTO 28006G17KT 10SM BKN090 11/M07 A2984 RMK AO2 SLP108 T01061067
KSEG 302153Z AUTO 28008G15KT 10SM CLR 11/M04 A2983 RMK AO2 SLP103 T01111044
KSEG 302053Z AUTO 29009G21KT 10SM SCT060 BKN085 12/M03 A2982 RMK AO2 PK WND 28027/2030 RAB28E38 SLP102 P0000 60000 T01171033 56011
KSEG 301953Z AUTO 31015G27KT 10SM SCT060 BKN085 11/M02 A2983 RMK AO2 PK WND 28027/1945 SLP103 T01111022
KSEG 301853Z AUTO 28010G15KT 10SM BKN075 12/M02 A2984 RMK AO2 PK WND 28026/1805 SLP104 T01171022
KSEG 301753Z AUTO 30012G21KT 260V320 10SM SCT055 OVC070 09/M03 A2986 RMK AO2 SLP113 60000 T00941028 10106 20033 52006
KSEG 301653Z AUTO 28011G23KT 10SM OVC055 09/M03 A2985 RMK AO2 PK WND 32027/1611 SLP109 T00941033
KSEG 301553Z AUTO 28010G23KT 240V320 10SM BKN048 OVC060 08/M02 A2985 RMK AO2 SLP109 T00831017
KSEG 301453Z AUTO 23004KT 10SM BKN041 OVC050 07/01 A2984 RMK AO2 SLP106 60000 T00720006 58001
KSEG 301353Z AUTO VRB05KT 10SM SCT032 OVC060 05/M02 A2984 RMK AO2 RAB28E38 SLP108 P0000 T00501022
KSEG 301318Z AUTO 22005KT 10SM SCT026 OVC036 04/M03 A2984 RMK AO2 T00441028
KSEG 301253Z AUTO 22004KT 10SM BKN026 OVC042 04/M03 A2984 RMK AO2 SLP107 T00391033
KSEG 301249Z AUTO 21005KT 10SM BKN028 OVC040 04/M03 A2984 RMK AO2
KSEG 301153Z AUTO 21005KT 10SM OVC034 03/M03 A2984 RMK AO2 SLP109 T00331033 10050 20028 56015
KSEG 301053Z AUTO VRB04KT 10SM OVC037 03/M04 A2984 RMK AO2 SLP108 T00331039
KSEG 300953Z AUTO 19004KT 10SM OVC035 03/M03 A2986 RMK AO2 SLP113 T00331033
KSEG 300853Z AUTO 19006KT 10SM OVC043 03/M03 A2989 RMK AO2 SLP123 T00281028 58033
KSEG 300753Z AUTO 21014G25KT 10SM OVC041 03/M03 A2993 RMK AO2 SLP137 T00331033
KSEG 300653Z AUTO 19011KT 10SM OVC060 04/M09 A2995 RMK AO2 SLP143 T00441089
KSEG 300553Z AUTO 18009G14KT 10SM BKN080 OVC100 04/M12 A2999 RMK AO2 SLP156 T00441117 10050 20028 57024
KSEG 300453Z AUTO 19008G16KT 10SM OVC090 04/M12 A3000 RMK AO2 SLP162 T00441122 400781072
KSEG 300353Z AUTO 20008KT 10SM BKN110 04/M12 A3005 RMK AO2 SLP178 T00441117
KSEG 300253Z AUTO 19006KT 10SM CLR 04/M11 A3006 RMK AO2 SLP182 T00441111 58014
KSEG 300153Z AUTO VRB05KT 10SM CLR 04/M11 A3007 RMK AO2 SLP187 T00391106
KSEG 300053Z AUTO 18006KT 10SM CLR 04/M11 A3010 RMK AO2 SLP197 T00391111
KSEG 292353Z AUTO 18006KT 10SM CLR 04/M11 A3010 RMK AO2 SLP197 T00441106 10078 20044 56030
KSEG 292253Z AUTO 20005KT 10SM CLR 06/M12 A3012 RMK AO2 SLP205 T00561122
KSEG 292153Z AUTO 20007KT 10SM CLR 07/M12 A3014 RMK AO2 SLP212 T00721122
KSEG 292053Z AUTO 22007G15KT 10SM CLR 07/M12 A3019 RMK AO2 SLP228 T00721117 56027